createdAt,value
2023-04-20T00:01:31.376Z,5.47
2023-04-20T00:03:58.469Z,8.20
2023-04-20T00:06:32.967Z,9.67
2023-04-20T00:09:01.232Z,5.60
2023-04-20T00:11:28.457Z,7.50
2023-04-20T00:13:55.333Z,8.50
2023-04-20T00:16:22.439Z,6.37
2023-04-20T00:18:49.452Z,7.73
2023-04-20T00:21:16.883Z,8.40
2023-04-20T00:23:43.774Z,7.67
2023-04-20T00:26:10.612Z,8.67
2023-04-20T00:28:37.461Z,7.33
2023-04-20T00:31:04.373Z,7.80
2023-04-20T00:33:31.336Z,7.50
2023-04-20T00:35:58.240Z,8.40
2023-04-20T00:38:25.329Z,4.60
2023-04-20T00:40:54.117Z,6.30
2023-04-20T00:43:22.190Z,6.47
2023-04-20T00:45:49.336Z,7.60
2023-04-20T00:48:16.764Z,10.57
2023-04-20T00:50:44.685Z,8.50
2023-04-20T00:53:13.213Z,7.97
2023-04-20T00:55:43.646Z,9.07
2023-04-20T00:58:11.941Z,4.50
2023-04-20T01:00:40.608Z,8.27
2023-04-20T01:03:09.003Z,9.67
2023-04-20T01:05:36.222Z,7.60
2023-04-20T01:08:03.226Z,9.73
2023-04-20T01:10:30.545Z,8.87
2023-04-20T01:12:57.435Z,10.03
2023-04-20T01:15:24.496Z,8.33
2023-04-20T01:17:52.432Z,8.63
2023-04-20T01:20:20.453Z,9.40
2023-04-20T01:22:53.756Z,6.83
2023-04-20T01:25:21.889Z,7.23
2023-04-20T01:27:48.843Z,8.07
2023-04-20T01:30:17.205Z,10.97
2023-04-20T01:32:44.643Z,9.70
2023-04-20T01:35:12.115Z,10.87
2023-04-20T01:37:40.650Z,12.07
2023-04-20T01:40:13.048Z,8.03
2023-04-20T01:42:40.426Z,8.07
2023-04-20T01:45:08.429Z,9.10
2023-04-20T01:47:35.801Z,8.43
2023-04-20T01:50:03.156Z,8.93
2023-04-20T01:52:30.076Z,10.27
2023-04-20T01:54:56.955Z,10.40
2023-04-20T01:57:23.919Z,8.00
2023-04-20T01:59:50.871Z,9.53
2023-04-20T02:02:18.159Z,4.57
2023-04-20T02:04:45.260Z,5.47
2023-04-20T02:07:12.203Z,10.73
2023-04-20T02:09:39.094Z,12.07
2023-04-20T02:12:06.282Z,9.13
2023-04-20T02:14:33.180Z,8.37
2023-04-20T02:17:01.984Z,7.13
2023-04-20T02:19:28.817Z,6.77
2023-04-20T02:21:55.638Z,12.10
2023-04-20T02:24:22.532Z,6.57
2023-04-20T02:26:49.526Z,7.57
2023-04-20T02:29:17.231Z,6.60
2023-04-20T02:31:44.906Z,9.63
2023-04-20T02:34:11.949Z,9.87
2023-04-20T02:36:38.879Z,8.60
2023-04-20T02:39:05.959Z,8.53
2023-04-20T02:41:32.986Z,10.20
2023-04-20T02:43:59.926Z,9.90
2023-04-20T02:46:26.815Z,6.87
2023-04-20T02:48:55.524Z,9.73
2023-04-20T02:51:22.503Z,7.80
2023-04-20T02:53:49.362Z,8.73
2023-04-20T02:56:16.267Z,4.23
2023-04-20T02:58:43.097Z,11.07
2023-04-20T03:01:10.320Z,7.77
2023-04-20T03:03:37.324Z,10.73
2023-04-20T03:06:04.809Z,9.60
2023-04-20T03:08:31.707Z,8.30
2023-04-20T03:10:58.651Z,10.23
2023-04-20T03:13:25.495Z,9.50
2023-04-20T03:15:52.387Z,9.77
2023-04-20T03:18:19.381Z,9.67
2023-04-20T03:20:46.244Z,11.90
2023-04-20T03:23:13.120Z,10.60
2023-04-20T03:25:40.041Z,10.30
2023-04-20T03:28:06.868Z,9.37
2023-04-20T03:30:33.847Z,11.80
2023-04-20T03:33:00.913Z,10.37
2023-04-20T03:35:27.909Z,9.70
2023-04-20T03:37:54.948Z,9.17
2023-04-20T03:40:21.824Z,7.73
2023-04-20T03:42:48.639Z,12.30
2023-04-20T03:45:16.446Z,10.83
2023-04-20T03:47:43.587Z,8.30
2023-04-20T03:50:10.898Z,11.20
2023-04-20T03:52:37.847Z,12.63
2023-04-20T03:55:05.382Z,8.80
2023-04-20T03:57:33.741Z,20.93
2023-04-20T04:00:00.910Z,10.03
2023-04-20T04:02:28.267Z,23.60
2023-04-20T04:04:55.578Z,9.03
2023-04-20T04:07:22.555Z,9.90
2023-04-20T04:09:49.402Z,10.50
2023-04-20T04:12:17.916Z,8.43
2023-04-20T04:14:44.848Z,11.97
2023-04-20T04:17:14.138Z,9.23
2023-04-20T04:19:41.058Z,11.07
2023-04-20T04:22:08.435Z,9.20
2023-04-20T04:24:36.307Z,9.53
2023-04-20T04:27:05.296Z,11.40
2023-04-20T04:29:35.813Z,11.03
2023-04-20T04:32:04.221Z,12.10
2023-04-20T04:34:34.801Z,9.40
2023-04-20T04:37:02.070Z,11.80
2023-04-20T04:39:29.847Z,13.03
2023-04-20T04:41:57.802Z,11.67
2023-04-20T04:44:26.072Z,11.80
2023-04-20T04:46:53.044Z,11.00
2023-04-20T04:49:20.867Z,12.53
2023-04-20T04:51:48.111Z,10.37
2023-04-20T04:54:14.967Z,11.37
2023-04-20T04:56:41.884Z,11.23
2023-04-20T04:59:08.748Z,18.20
2023-04-20T05:01:35.809Z,11.73
2023-04-20T05:04:03.022Z,10.93
2023-04-20T05:06:30.120Z,10.57
2023-04-20T05:08:56.990Z,11.93
2023-04-20T05:11:23.869Z,10.20
2023-04-20T05:13:50.825Z,11.80
2023-04-20T05:16:19.071Z,13.87
2023-04-20T05:18:46.058Z,13.10
2023-04-20T05:21:13.192Z,10.37
2023-04-20T05:23:40.002Z,12.50
2023-04-20T05:26:06.866Z,12.27
2023-04-20T05:28:34.729Z,12.53
2023-04-20T05:31:01.782Z,11.30
2023-04-20T05:33:28.675Z,11.20
2023-04-20T05:35:58.854Z,10.80
2023-04-20T05:38:25.929Z,10.23
2023-04-20T05:40:52.873Z,15.70
2023-04-20T05:43:20.059Z,10.83
2023-04-20T05:45:48.670Z,9.40
2023-04-20T05:48:15.623Z,9.57
2023-04-20T05:50:42.513Z,8.07
2023-04-20T05:53:09.406Z,9.73
2023-04-20T05:55:36.392Z,9.20
2023-04-20T05:58:03.360Z,10.03
2023-04-20T06:00:30.372Z,7.73
2023-04-20T06:02:57.537Z,7.87
2023-04-20T06:05:24.673Z,5.73
2023-04-20T06:07:51.777Z,7.10
2023-04-20T06:10:18.737Z,7.30
2023-04-20T06:12:45.731Z,7.20
2023-04-20T06:15:12.613Z,7.93
2023-04-20T06:17:41.042Z,7.37
2023-04-20T06:20:12.558Z,6.60
2023-04-20T06:22:47.151Z,6.13
2023-04-20T06:25:15.453Z,6.70
2023-04-20T06:27:42.893Z,6.67
2023-04-20T06:30:11.017Z,9.10
2023-04-20T06:32:38.193Z,6.33
2023-04-20T06:35:06.966Z,6.03
2023-04-20T06:37:36.595Z,5.10
2023-04-20T06:40:08.381Z,5.87
2023-04-20T06:42:36.513Z,5.33
2023-04-20T06:45:05.728Z,4.50
2023-04-20T06:47:33.729Z,4.10
2023-04-20T06:50:04.129Z,5.17
2023-04-20T06:52:33.865Z,2.40
2023-04-20T06:55:00.743Z,3.20
2023-04-20T06:57:27.693Z,4.60
2023-04-20T06:59:54.604Z,5.77
2023-04-20T07:02:21.557Z,2.30
2023-04-20T07:04:48.582Z,1.70
2023-04-20T07:07:15.621Z,2.33
2023-04-20T07:09:42.838Z,2.70
2023-04-20T07:12:11.374Z,2.47
2023-04-20T07:14:38.538Z,2.83
2023-04-20T07:17:05.537Z,3.03
2023-04-20T07:23:39.743Z,2.43
2023-04-20T07:26:07.292Z,3.67
2023-04-20T07:28:34.442Z,1.93
2023-04-20T07:31:04.540Z,1.67
2023-04-20T07:33:32.056Z,5.47
2023-04-20T07:35:59.135Z,9.73
2023-04-20T07:38:26.182Z,10.57
2023-04-20T07:40:53.027Z,1.40
2023-04-20T07:43:19.894Z,1.53
2023-04-20T07:45:48.514Z,4.00
2023-04-20T07:48:15.566Z,2.07
2023-04-20T07:50:42.665Z,1.80
2023-04-20T07:53:09.551Z,1.50
2023-04-20T07:55:36.612Z,1.47
2023-04-20T07:58:03.734Z,0.80
2023-04-20T08:00:30.686Z,2.33
2023-04-20T08:02:57.664Z,1.17
2023-04-20T08:05:25.146Z,0.77
2023-04-20T08:07:52.181Z,0.87
2023-04-20T08:10:19.059Z,0.70
2023-04-20T08:12:47.113Z,0.77
2023-04-20T08:15:14.603Z,1.10
2023-04-20T08:17:41.535Z,0.40
2023-04-20T08:20:09.203Z,1.10
2023-04-20T08:22:36.368Z,1.00
2023-04-20T08:25:03.436Z,0.87
2023-04-20T08:27:30.702Z,0.33
2023-04-20T08:29:58.073Z,0.50
2023-04-20T08:32:26.842Z,0.67
2023-04-20T08:34:54.149Z,1.13
2023-04-20T08:37:21.208Z,0.87
2023-04-20T08:39:48.174Z,0.80
2023-04-20T08:42:16.886Z,0.80
2023-04-20T08:44:43.770Z,1.90
2023-04-20T08:47:12.072Z,0.50
2023-04-20T08:49:40.059Z,0.50
2023-04-20T08:52:10.756Z,1.00
2023-04-20T08:54:45.984Z,0.60
2023-04-20T08:57:20.162Z,0.50
2023-04-20T08:59:47.053Z,0.40
2023-04-20T09:02:14.924Z,0.57
2023-04-20T09:04:42.247Z,0.20
2023-04-20T09:07:20.136Z,0.50
2023-04-20T09:09:58.402Z,0.40
2023-04-20T09:12:25.889Z,0.30
2023-04-20T09:14:53.839Z,0.40
2023-04-20T09:17:40.173Z,0.43
2023-04-20T09:20:08.591Z,1.80
2023-04-20T09:22:38.214Z,0.30
2023-04-20T09:25:19.298Z,0.80
2023-04-20T09:28:01.407Z,0.53
2023-04-20T09:30:46.699Z,0.40
2023-04-20T09:33:14.809Z,0.50
2023-04-20T09:35:43.877Z,0.50
2023-04-20T09:38:16.015Z,0.20
2023-04-20T09:40:42.868Z,0.77
2023-04-20T09:43:19.115Z,0.40
2023-04-20T09:45:46.115Z,0.60
2023-04-20T09:48:18.959Z,0.60
2023-04-20T09:50:50.482Z,0.40
2023-04-20T09:53:19.959Z,0.77
2023-04-20T09:55:51.225Z,2.23
2023-04-20T09:58:21.636Z,1.27
2023-04-20T10:00:49.438Z,1.30
2023-04-20T10:03:20.613Z,1.40
2023-04-20T10:05:47.975Z,1.63
2023-04-20T10:08:15.045Z,1.40
2023-04-20T10:10:50.362Z,1.50
2023-04-20T10:13:22.104Z,1.17
2023-04-20T10:15:49.411Z,1.27
2023-04-20T10:18:24.533Z,1.67
2023-04-20T10:21:04.214Z,2.30
2023-04-20T10:23:31.144Z,4.13
2023-04-20T10:26:02.732Z,3.87
2023-04-20T10:28:44.987Z,3.67
2023-04-20T10:31:16.764Z,1.57
2023-04-20T10:33:51.514Z,2.53
2023-04-20T10:36:31.389Z,3.17
2023-04-20T10:38:59.176Z,3.73
2023-04-20T10:41:26.128Z,7.07
2023-04-20T10:43:53.230Z,4.37
2023-04-20T10:46:26.208Z,5.20
2023-04-20T10:49:01.679Z,4.53
2023-04-20T10:51:29.375Z,7.40
2023-04-20T10:54:08.639Z,6.37
2023-04-20T10:56:42.133Z,5.73
2023-04-20T10:59:17.219Z,7.27
2023-04-20T11:01:46.773Z,7.60
2023-04-20T11:04:18.349Z,3.27
2023-04-20T11:06:48.175Z,6.68
2023-04-20T11:09:26.265Z,6.67
2023-04-20T11:12:04.569Z,6.23
2023-04-20T11:14:35.949Z,9.67
2023-04-20T11:17:03.629Z,6.83
2023-04-20T11:19:37.178Z,7.03
2023-04-20T11:22:06.350Z,4.37
2023-04-20T11:24:35.042Z,4.50
2023-04-20T11:27:04.517Z,8.43
2023-04-20T11:29:33.438Z,7.80
2023-04-20T11:32:04.760Z,3.60
2023-04-20T11:34:35.794Z,4.53
2023-04-20T11:37:07.961Z,3.50
2023-04-20T11:39:35.056Z,4.40
2023-04-20T11:42:02.372Z,7.03
2023-04-20T11:44:29.317Z,7.03
2023-04-20T11:47:00.043Z,5.13
2023-04-20T11:49:29.077Z,7.30
2023-04-20T11:51:56.206Z,7.50
2023-04-20T11:54:24.542Z,8.43
2023-04-20T11:56:51.697Z,6.10
2023-04-20T11:59:20.307Z,6.43
2023-04-20T12:01:47.884Z,8.93
2023-04-20T12:04:15.807Z,9.10
2023-04-20T12:06:43.226Z,7.33
2023-04-20T12:09:10.503Z,9.43
2023-04-20T12:11:37.482Z,6.93
2023-04-20T12:14:05.185Z,6.60
2023-04-20T12:16:32.492Z,11.87
2023-04-20T12:18:59.562Z,6.23
2023-04-20T12:21:27.275Z,7.63
2023-04-20T12:23:54.289Z,9.20
2023-04-20T12:26:22.616Z,9.60
2023-04-20T12:28:52.434Z,10.30
2023-04-20T12:31:19.496Z,7.77
2023-04-20T12:33:46.465Z,6.60
2023-04-20T12:36:13.324Z,11.38
2023-04-20T12:38:40.369Z,7.73
2023-04-20T12:41:07.380Z,10.93
2023-04-20T12:43:37.253Z,9.70
2023-04-20T12:46:04.092Z,10.85
2023-04-20T12:48:31.016Z,8.57
2023-04-20T12:50:57.859Z,9.80
2023-04-20T12:53:24.808Z,6.87
2023-04-20T12:56:00.375Z,8.88
2023-04-20T12:58:28.470Z,8.45
2023-04-20T13:00:55.483Z,8.70
2023-04-20T13:03:22.665Z,8.70
2023-04-20T13:05:49.791Z,7.43
2023-04-20T13:08:17.169Z,12.40
2023-04-20T13:10:44.213Z,9.85
2023-04-20T13:13:11.809Z,10.40
2023-04-20T13:15:39.634Z,10.23
2023-04-20T13:18:07.354Z,5.45
2023-04-20T13:20:34.261Z,5.72
2023-04-20T13:23:02.390Z,7.45
2023-04-20T13:25:33.372Z,8.88
2023-04-20T13:28:02.959Z,6.43
2023-04-20T13:30:30.022Z,5.97
2023-04-20T13:32:56.994Z,5.28
2023-04-20T13:35:24.539Z,8.27
2023-04-20T13:37:51.594Z,6.95
2023-04-20T13:40:18.503Z,7.25
2023-04-20T13:42:45.499Z,5.82
2023-04-20T13:45:13.100Z,6.38
2023-04-20T13:47:40.667Z,7.45
2023-04-20T13:50:08.735Z,8.65
2023-04-20T13:52:37.045Z,6.22
2023-04-20T13:55:05.429Z,6.78
2023-04-20T13:57:32.486Z,8.45
2023-04-20T14:00:01.003Z,7.28
2023-04-20T14:02:29.757Z,2.60
2023-04-20T14:04:57.029Z,6.50
2023-04-20T14:07:24.011Z,12.88
2023-04-20T14:09:52.787Z,6.63
2023-04-20T14:12:19.818Z,7.65
2023-04-20T14:14:46.762Z,4.97
2023-04-20T14:17:13.757Z,7.82
2023-04-20T14:19:40.744Z,7.10
2023-04-20T14:22:07.612Z,7.75
2023-04-20T14:24:34.644Z,6.50
2023-04-20T14:27:01.948Z,5.57
2023-04-20T14:29:29.134Z,4.43
2023-04-20T14:31:56.074Z,5.25
2023-04-20T14:34:23.112Z,7.07
2023-04-20T14:36:49.993Z,6.65
2023-04-20T14:39:19.193Z,6.10
2023-04-20T14:41:46.307Z,4.30
2023-04-20T14:44:13.263Z,7.25
2023-04-20T14:46:42.450Z,6.75
2023-04-20T14:49:10.603Z,6.25
2023-04-20T14:51:37.496Z,4.53
2023-04-20T14:54:04.499Z,6.60
2023-04-20T14:56:31.840Z,4.10
2023-04-20T14:58:59.731Z,6.78
2023-04-20T15:01:27.957Z,5.43
2023-04-20T15:03:55.260Z,4.97
2023-04-20T15:06:22.579Z,5.93
2023-04-20T15:08:49.670Z,4.18
2023-04-20T15:11:16.768Z,3.80
2023-04-20T15:13:43.831Z,6.47
2023-04-20T15:16:11.025Z,4.82
2023-04-20T15:18:37.915Z,6.70
2023-04-20T15:21:05.794Z,4.88
2023-04-20T15:23:32.748Z,3.63
2023-04-20T15:25:59.652Z,5.70
2023-04-20T15:28:26.505Z,4.55
2023-04-20T15:30:53.371Z,5.68
2023-04-20T15:33:20.542Z,5.10
2023-04-20T15:35:47.499Z,5.07
2023-04-20T15:38:14.364Z,6.97
2023-04-20T15:40:41.496Z,6.18
2023-04-20T15:43:08.404Z,7.95
2023-04-20T15:45:35.676Z,2.65
2023-04-20T15:48:02.781Z,5.20
2023-04-20T15:50:30.018Z,6.57
2023-04-20T15:52:57.007Z,6.63
2023-04-20T15:55:25.047Z,6.55
2023-04-20T15:57:57.114Z,7.22
2023-04-20T16:00:24.900Z,5.03
2023-04-20T16:02:53.619Z,5.60
2023-04-20T16:05:21.776Z,8.00
2023-04-20T16:07:48.711Z,8.43
2023-04-20T16:10:15.688Z,7.75
2023-04-20T16:12:42.624Z,6.17
2023-04-20T16:15:09.921Z,8.80
2023-04-20T16:17:36.809Z,9.32
2023-04-20T16:20:05.259Z,10.32
2023-04-20T16:22:32.152Z,9.10
2023-04-20T16:24:59.150Z,8.13
2023-04-20T16:27:26.814Z,6.87
2023-04-20T16:29:53.819Z,9.57
2023-04-20T16:32:20.959Z,5.97
2023-04-20T16:34:48.074Z,8.63
2023-04-20T16:37:15.087Z,9.27
2023-04-20T16:39:42.019Z,10.33
2023-04-20T16:42:08.899Z,8.87
2023-04-20T16:44:35.780Z,12.20
2023-04-20T16:47:02.817Z,13.53
2023-04-20T16:49:29.828Z,10.23
2023-04-20T16:51:57.636Z,10.73
2023-04-20T16:54:24.568Z,10.13
2023-04-20T16:56:51.539Z,10.70
2023-04-20T16:59:18.459Z,12.20
2023-04-20T17:01:46.094Z,10.33
2023-04-20T17:04:13.324Z,11.03
2023-04-20T17:06:40.312Z,12.07
2023-04-20T17:09:11.400Z,10.50
2023-04-20T17:11:39.757Z,10.83
2023-04-20T17:14:07.333Z,5.23
2023-04-20T17:16:34.334Z,10.27
2023-04-20T17:19:03.480Z,12.60
2023-04-20T17:21:30.418Z,14.27
2023-04-20T17:23:57.465Z,13.00
2023-04-20T17:26:24.314Z,10.73
2023-04-20T17:28:51.314Z,12.00
2023-04-20T17:31:18.184Z,11.60
2023-04-20T17:33:45.173Z,9.10
2023-04-20T17:36:12.121Z,11.93
2023-04-20T17:38:39.096Z,11.63
2023-04-20T17:41:06.145Z,12.97
2023-04-20T17:43:33.235Z,10.67
2023-04-20T17:46:00.767Z,12.03
2023-04-20T17:48:27.729Z,12.87
2023-04-20T17:50:55.420Z,12.83
2023-04-20T17:53:23.746Z,13.07
2023-04-20T17:55:50.896Z,13.47
2023-04-20T17:58:17.898Z,13.57
2023-04-20T18:00:45.266Z,8.23
2023-04-20T18:03:14.664Z,13.30
2023-04-20T18:05:42.233Z,13.70
2023-04-20T18:08:10.235Z,11.83
2023-04-20T18:10:37.683Z,11.67
2023-04-20T18:13:05.150Z,13.73
2023-04-20T18:15:32.178Z,10.17
2023-04-20T18:17:59.071Z,13.83
2023-04-20T18:20:26.157Z,14.07
2023-04-20T18:22:53.031Z,7.80
2023-04-20T18:25:20.228Z,13.87
2023-04-20T18:27:47.074Z,12.90
2023-04-20T18:30:14.703Z,12.00
2023-04-20T18:32:42.067Z,12.03
2023-04-20T18:35:09.794Z,13.77
2023-04-20T18:37:37.303Z,9.53
2023-04-20T18:40:06.067Z,14.67
2023-04-20T18:42:33.060Z,14.33
2023-04-20T18:44:59.950Z,13.93
2023-04-20T18:47:27.171Z,12.40
2023-04-20T18:49:54.211Z,8.30
2023-04-20T18:52:21.939Z,14.23
2023-04-20T18:54:49.008Z,14.40
2023-04-20T18:57:16.154Z,12.07
2023-04-20T18:59:43.023Z,9.43
2023-04-20T19:02:10.354Z,13.43
2023-04-20T19:04:37.374Z,13.63
2023-04-20T19:07:04.392Z,14.17
2023-04-20T19:09:31.304Z,12.07
2023-04-20T19:11:58.554Z,13.80
2023-04-20T19:14:25.455Z,13.67
2023-04-20T19:16:52.444Z,11.23
2023-04-20T19:19:19.479Z,17.33
2023-04-20T19:21:47.801Z,14.80
2023-04-20T19:24:15.113Z,12.73
2023-04-20T19:26:42.049Z,10.37
2023-04-20T19:29:09.027Z,17.27
2023-04-20T19:31:40.217Z,17.00
2023-04-20T19:34:08.152Z,15.10
2023-04-20T19:36:35.113Z,14.20
2023-04-20T19:39:02.143Z,14.83
2023-04-20T19:41:29.336Z,9.47
2023-04-20T19:43:56.314Z,15.63
2023-04-20T19:46:23.326Z,13.67
2023-04-20T19:48:50.236Z,17.77
2023-04-20T19:51:17.161Z,16.33
2023-04-20T19:53:44.078Z,17.77
2023-04-20T19:56:11.195Z,16.60
2023-04-20T19:58:38.184Z,14.40
2023-04-20T20:01:05.224Z,15.10
2023-04-20T20:03:32.313Z,17.23
2023-04-20T20:05:59.494Z,17.83
2023-04-20T20:08:26.788Z,17.17
2023-04-20T20:10:53.876Z,17.87
2023-04-20T20:13:20.758Z,19.97
2023-04-20T20:15:48.180Z,20.80
2023-04-20T20:18:17.633Z,20.47
2023-04-20T20:20:44.458Z,22.83
2023-04-20T20:23:11.334Z,20.57
2023-04-20T20:25:38.606Z,20.93
2023-04-20T20:28:05.697Z,23.30
2023-04-20T20:30:32.826Z,20.10
2023-04-20T20:32:59.929Z,23.23
2023-04-20T20:35:33.377Z,23.27
2023-04-20T20:38:00.735Z,23.17
2023-04-20T20:40:27.841Z,24.83
2023-04-20T20:42:54.752Z,22.13
2023-04-20T20:45:22.015Z,20.53
2023-04-20T20:47:49.152Z,22.07
2023-04-20T20:50:17.144Z,17.07
2023-04-20T20:52:44.013Z,20.57
2023-04-20T20:55:11.627Z,22.33
2023-04-20T20:57:38.794Z,23.67
2023-04-20T21:00:09.910Z,23.10
2023-04-20T21:02:37.394Z,25.57
2023-04-20T21:05:05.710Z,29.00
2023-04-20T21:07:32.699Z,25.33
2023-04-20T21:09:59.763Z,22.77
2023-04-20T21:12:26.610Z,25.83
2023-04-20T21:14:53.796Z,21.70
2023-04-20T21:17:20.750Z,19.83
2023-04-20T21:19:47.648Z,22.70
2023-04-20T21:22:14.628Z,27.27
2023-04-20T21:24:41.532Z,23.93
2023-04-20T21:27:08.601Z,22.53
2023-04-20T21:29:35.566Z,25.63
2023-04-20T21:32:02.424Z,25.93
2023-04-20T21:34:29.418Z,24.97
2023-04-20T21:37:03.465Z,25.47
2023-04-20T21:39:31.671Z,25.57
2023-04-20T21:41:59.628Z,28.87
2023-04-20T21:44:26.714Z,27.40
2023-04-20T21:46:53.659Z,28.80
2023-04-20T21:49:21.211Z,28.40
2023-04-20T21:51:48.202Z,31.63
2023-04-20T21:54:15.379Z,26.27
2023-04-20T21:56:42.306Z,30.50
2023-04-20T21:59:09.273Z,31.27
2023-04-20T22:01:36.327Z,30.33
2023-04-20T22:04:04.588Z,32.33
2023-04-20T22:06:32.705Z,35.47
2023-04-20T22:08:59.618Z,25.33
2023-04-20T22:11:26.470Z,29.17
2023-04-20T22:13:53.671Z,33.13
2023-04-20T22:16:21.820Z,33.37
2023-04-20T22:18:49.119Z,32.77
2023-04-20T22:21:16.159Z,33.53
2023-04-20T22:23:43.036Z,30.80
2023-04-20T22:26:09.914Z,31.70
2023-04-20T22:28:36.790Z,34.10
2023-04-20T22:31:03.762Z,38.90
2023-04-20T22:33:30.741Z,32.50
2023-04-20T22:35:57.782Z,35.47
2023-04-20T22:38:24.651Z,36.53
2023-04-20T22:40:51.497Z,35.43
2023-04-20T22:43:18.369Z,36.10
2023-04-20T22:45:45.357Z,38.23
2023-04-20T22:48:12.266Z,33.50
2023-04-20T22:50:39.134Z,35.83
2023-04-20T22:53:06.104Z,37.47
2023-04-20T22:55:32.899Z,37.87
2023-04-20T22:57:59.795Z,39.67
2023-04-20T23:00:26.855Z,40.00
2023-04-20T23:02:54.198Z,38.80
2023-04-20T23:05:21.031Z,43.37
2023-04-20T23:07:47.909Z,44.40
2023-04-20T23:10:18.813Z,39.57
2023-04-20T23:12:46.849Z,40.47
2023-04-20T23:15:14.939Z,42.47
2023-04-20T23:17:41.890Z,44.90
2023-04-20T23:20:13.792Z,45.93
2023-04-20T23:22:40.982Z,47.97
2023-04-20T23:25:09.853Z,45.53
2023-04-20T23:27:37.141Z,44.40
2023-04-20T23:30:04.644Z,50.93
2023-04-20T23:32:31.635Z,43.80
2023-04-20T23:34:58.547Z,43.07
2023-04-20T23:37:25.516Z,48.83
2023-04-20T23:39:52.368Z,45.03
2023-04-20T23:42:19.163Z,50.10
2023-04-20T23:44:46.121Z,47.23
2023-04-20T23:47:12.962Z,48.83
2023-04-20T23:49:39.819Z,50.73
2023-04-20T23:52:06.995Z,58.33
2023-04-20T23:54:33.892Z,55.13
2023-04-20T23:57:00.693Z,50.93
2023-04-20T23:59:27.533Z,61.97
